sensor_id;sensor_type;location;lat;lon;timestamp;P1;durP1;ratioP1;P2;durP2;ratioP2
62894;SDS011;49204;44.916;37.998;2022-12-18T00:00:06;17.02;;;6.90;;
62894;SDS011;49204;44.916;37.998;2022-12-18T00:02:43;19.57;;;7.60;;
62894;SDS011;49204;44.916;37.998;2022-12-18T00:05:12;17.30;;;6.90;;
62894;SDS011;49204;44.916;37.998;2022-12-18T00:07:44;18.85;;;6.92;;
62894;SDS011;49204;44.916;37.998;2022-12-18T00:10:16;16.75;;;6.40;;
62894;SDS011;49204;44.916;37.998;2022-12-18T00:12:45;15.43;;;6.25;;
62894;SDS011;49204;44.916;37.998;2022-12-18T00:15:14;17.23;;;6.75;;
62894;SDS011;49204;44.916;37.998;2022-12-18T00:17:43;16.10;;;8.13;;
62894;SDS011;49204;44.916;37.998;2022-12-18T00:20:11;18.62;;;6.53;;
62894;SDS011;49204;44.916;37.998;2022-12-18T00:22:41;26.05;;;8.65;;
62894;SDS011;49204;44.916;37.998;2022-12-18T00:25:09;27.52;;;9.65;;
62894;SDS011;49204;44.916;37.998;2022-12-18T00:27:38;25.37;;;9.03;;
62894;SDS011;49204;44.916;37.998;2022-12-18T00:30:09;29.67;;;8.65;;
62894;SDS011;49204;44.916;37.998;2022-12-18T00:32:38;26.55;;;8.30;;
62894;SDS011;49204;44.916;37.998;2022-12-18T00:35:07;19.65;;;8.13;;
62894;SDS011;49204;44.916;37.998;2022-12-18T00:37:36;21.00;;;8.33;;
62894;SDS011;49204;44.916;37.998;2022-12-18T00:40:05;22.15;;;8.15;;
62894;SDS011;49204;44.916;37.998;2022-12-18T00:42:36;28.40;;;9.18;;
62894;SDS011;49204;44.916;37.998;2022-12-18T00:45:24;30.15;;;8.35;;
62894;SDS011;49204;44.916;37.998;2022-12-18T00:47:55;26.20;;;9.68;;
62894;SDS011;49204;44.916;37.998;2022-12-18T00:50:25;34.43;;;11.40;;
62894;SDS011;49204;44.916;37.998;2022-12-18T00:52:54;24.80;;;9.43;;
62894;SDS011;49204;44.916;37.998;2022-12-18T00:55:22;17.23;;;7.45;;
62894;SDS011;49204;44.916;37.998;2022-12-18T00:57:51;13.65;;;5.15;;
62894;SDS011;49204;44.916;37.998;2022-12-18T01:00:20;10.68;;;4.65;;
62894;SDS011;49204;44.916;37.998;2022-12-18T01:02:49;9.98;;;4.12;;
62894;SDS011;49204;44.916;37.998;2022-12-18T01:05:18;4.37;;;1.85;;
62894;SDS011;49204;44.916;37.998;2022-12-18T01:07:47;3.22;;;1.12;;
62894;SDS011;49204;44.916;37.998;2022-12-18T01:10:16;4.10;;;1.80;;
62894;SDS011;49204;44.916;37.998;2022-12-18T01:12:45;1.45;;;1.00;;
62894;SDS011;49204;44.916;37.998;2022-12-18T01:15:14;4.28;;;1.85;;
62894;SDS011;49204;44.916;37.998;2022-12-18T01:17:43;2.67;;;1.70;;
62894;SDS011;49204;44.916;37.998;2022-12-18T01:20:12;3.62;;;1.90;;
62894;SDS011;49204;44.916;37.998;2022-12-18T01:22:41;5.62;;;2.40;;
62894;SDS011;49204;44.916;37.998;2022-12-18T01:25:10;7.03;;;3.22;;
62894;SDS011;49204;44.916;37.998;2022-12-18T01:27:39;3.77;;;1.72;;
62894;SDS011;49204;44.916;37.998;2022-12-18T01:30:08;6.95;;;2.75;;
62894;SDS011;49204;44.916;37.998;2022-12-18T01:32:37;6.28;;;2.95;;
62894;SDS011;49204;44.916;37.998;2022-12-18T01:35:06;3.50;;;2.08;;
62894;SDS011;49204;44.916;37.998;2022-12-18T01:37:35;12.63;;;4.10;;
62894;SDS011;49204;44.916;37.998;2022-12-18T01:40:04;11.08;;;4.65;;
62894;SDS011;49204;44.916;37.998;2022-12-18T01:42:34;8.65;;;3.50;;
62894;SDS011;49204;44.916;37.998;2022-12-18T01:45:22;7.75;;;3.58;;
62894;SDS011;49204;44.916;37.998;2022-12-18T01:47:45;7.42;;;3.22;;
62894;SDS011;49204;44.916;37.998;2022-12-18T01:50:17;9.38;;;4.00;;
62894;SDS011;49204;44.916;37.998;2022-12-18T01:52:55;7.05;;;2.98;;
62894;SDS011;49204;44.916;37.998;2022-12-18T01:55:42;6.58;;;3.25;;
62894;SDS011;49204;44.916;37.998;2022-12-18T01:58:12;7.20;;;3.15;;
62894;SDS011;49204;44.916;37.998;2022-12-18T02:00:42;7.55;;;2.95;;
62894;SDS011;49204;44.916;37.998;2022-12-18T02:03:11;8.03;;;3.30;;
62894;SDS011;49204;44.916;37.998;2022-12-18T02:13:59;10.25;;;3.00;;
62894;SDS011;49204;44.916;37.998;2022-12-18T02:19:27;4.87;;;1.80;;
62894;SDS011;49204;44.916;37.998;2022-12-18T02:24:53;4.45;;;2.22;;
62894;SDS011;49204;44.916;37.998;2022-12-18T02:27:26;5.45;;;1.72;;
62894;SDS011;49204;44.916;37.998;2022-12-18T02:29:57;2.80;;;1.40;;
62894;SDS011;49204;44.916;37.998;2022-12-18T02:32:33;4.15;;;2.35;;
62894;SDS011;49204;44.916;37.998;2022-12-18T02:35:04;2.10;;;1.27;;
62894;SDS011;49204;44.916;37.998;2022-12-18T02:37:35;1.98;;;1.10;;
62894;SDS011;49204;44.916;37.998;2022-12-18T02:40:07;2.98;;;1.40;;
62894;SDS011;49204;44.916;37.998;2022-12-18T02:42:38;2.65;;;1.70;;
62894;SDS011;49204;44.916;37.998;2022-12-18T02:45:07;2.33;;;1.30;;
62894;SDS011;49204;44.916;37.998;2022-12-18T02:47:38;2.85;;;1.37;;
62894;SDS011;49204;44.916;37.998;2022-12-18T02:50:16;5.10;;;1.72;;
62894;SDS011;49204;44.916;37.998;2022-12-18T02:55:49;5.33;;;2.33;;
62894;SDS011;49204;44.916;37.998;2022-12-18T02:58:27;4.40;;;2.20;;
62894;SDS011;49204;44.916;37.998;2022-12-18T03:01:16;6.20;;;2.37;;
62894;SDS011;49204;44.916;37.998;2022-12-18T03:03:59;4.55;;;1.52;;
62894;SDS011;49204;44.916;37.998;2022-12-18T03:06:48;2.70;;;1.67;;
62894;SDS011;49204;44.916;37.998;2022-12-18T03:09:20;3.83;;;1.60;;
62894;SDS011;49204;44.916;37.998;2022-12-18T03:11:56;3.35;;;1.42;;
62894;SDS011;49204;44.916;37.998;2022-12-18T03:14:42;2.77;;;1.65;;
62894;SDS011;49204;44.916;37.998;2022-12-18T03:17:14;4.03;;;1.20;;
62894;SDS011;49204;44.916;37.998;2022-12-18T03:19:45;2.47;;;1.40;;
62894;SDS011;49204;44.916;37.998;2022-12-18T03:22:16;2.08;;;1.30;;
62894;SDS011;49204;44.916;37.998;2022-12-18T03:24:47;1.22;;;0.95;;
62894;SDS011;49204;44.916;37.998;2022-12-18T03:27:17;2.35;;;0.90;;
62894;SDS011;49204;44.916;37.998;2022-12-18T03:29:50;2.65;;;1.30;;
62894;SDS011;49204;44.916;37.998;2022-12-18T03:32:26;3.17;;;1.60;;
62894;SDS011;49204;44.916;37.998;2022-12-18T03:34:58;2.40;;;1.45;;
62894;SDS011;49204;44.916;37.998;2022-12-18T03:37:30;3.60;;;1.27;;
62894;SDS011;49204;44.916;37.998;2022-12-18T03:39:59;2.52;;;1.32;;
62894;SDS011;49204;44.916;37.998;2022-12-18T03:42:36;1.60;;;1.00;;
62894;SDS011;49204;44.916;37.998;2022-12-18T03:47:59;3.22;;;1.30;;
62894;SDS011;49204;44.916;37.998;2022-12-18T03:50:39;1.90;;;0.98;;
62894;SDS011;49204;44.916;37.998;2022-12-18T03:53:57;1.90;;;1.32;;
62894;SDS011;49204;44.916;37.998;2022-12-18T03:55:50;1.65;;;1.05;;
62894;SDS011;49204;44.916;37.998;2022-12-18T03:58:22;2.60;;;1.50;;
62894;SDS011;49204;44.916;37.998;2022-12-18T04:00:55;2.05;;;1.07;;
62894;SDS011;49204;44.916;37.998;2022-12-18T04:03:26;1.82;;;1.10;;
62894;SDS011;49204;44.916;37.998;2022-12-18T04:05:57;2.30;;;1.25;;
62894;SDS011;49204;44.916;37.998;2022-12-18T04:08:28;2.15;;;1.00;;
62894;SDS011;49204;44.916;37.998;2022-12-18T04:10:59;2.15;;;1.17;;
62894;SDS011;49204;44.916;37.998;2022-12-18T04:13:29;2.67;;;1.25;;
62894;SDS011;49204;44.916;37.998;2022-12-18T04:16:01;2.13;;;0.90;;
62894;SDS011;49204;44.916;37.998;2022-12-18T04:18:30;2.37;;;1.25;;
62894;SDS011;49204;44.916;37.998;2022-12-18T04:20:59;1.77;;;1.20;;
62894;SDS011;49204;44.916;37.998;2022-12-18T04:23:28;2.37;;;1.30;;
62894;SDS011;49204;44.916;37.998;2022-12-18T04:25:58;3.62;;;1.05;;
62894;SDS011;49204;44.916;37.998;2022-12-18T04:28:28;2.50;;;1.32;;
62894;SDS011;49204;44.916;37.998;2022-12-18T04:30:57;1.87;;;1.15;;
62894;SDS011;49204;44.916;37.998;2022-12-18T04:33:27;1.95;;;0.90;;
62894;SDS011;49204;44.916;37.998;2022-12-18T04:35:56;2.72;;;1.37;;
62894;SDS011;49204;44.916;37.998;2022-12-18T04:38:25;2.90;;;1.20;;
62894;SDS011;49204;44.916;37.998;2022-12-18T04:40:55;2.67;;;1.20;;
62894;SDS011;49204;44.916;37.998;2022-12-18T04:43:25;2.98;;;1.20;;
62894;SDS011;49204;44.916;37.998;2022-12-18T04:46:00;3.75;;;1.20;;
62894;SDS011;49204;44.916;37.998;2022-12-18T04:48:31;3.25;;;1.50;;
62894;SDS011;49204;44.916;37.998;2022-12-18T04:51:01;1.85;;;1.10;;
62894;SDS011;49204;44.916;37.998;2022-12-18T04:53:30;5.17;;;1.17;;
62894;SDS011;49204;44.916;37.998;2022-12-18T04:56:06;2.45;;;1.30;;
62894;SDS011;49204;44.916;37.998;2022-12-18T04:58:37;3.20;;;1.20;;
62894;SDS011;49204;44.916;37.998;2022-12-18T05:01:07;4.42;;;1.40;;
62894;SDS011;49204;44.916;37.998;2022-12-18T05:03:37;7.00;;;1.65;;
62894;SDS011;49204;44.916;37.998;2022-12-18T05:06:06;1.98;;;1.12;;
62894;SDS011;49204;44.916;37.998;2022-12-18T05:08:36;3.75;;;1.50;;
62894;SDS011;49204;44.916;37.998;2022-12-18T05:11:05;3.35;;;1.50;;
62894;SDS011;49204;44.916;37.998;2022-12-18T05:13:39;3.00;;;1.47;;
62894;SDS011;49204;44.916;37.998;2022-12-18T05:16:08;5.65;;;1.95;;
62894;SDS011;49204;44.916;37.998;2022-12-18T05:18:37;12.78;;;3.00;;
62894;SDS011;49204;44.916;37.998;2022-12-18T05:21:06;6.50;;;2.00;;
62894;SDS011;49204;44.916;37.998;2022-12-18T05:23:34;9.35;;;1.52;;
62894;SDS011;49204;44.916;37.998;2022-12-18T05:26:04;7.60;;;1.92;;
62894;SDS011;49204;44.916;37.998;2022-12-18T05:28:35;6.92;;;2.40;;
62894;SDS011;49204;44.916;37.998;2022-12-18T05:31:04;6.58;;;2.02;;
62894;SDS011;49204;44.916;37.998;2022-12-18T05:33:33;6.42;;;1.40;;
62894;SDS011;49204;44.916;37.998;2022-12-18T05:36:04;5.25;;;1.75;;
62894;SDS011;49204;44.916;37.998;2022-12-18T05:38:34;5.33;;;2.08;;
62894;SDS011;49204;44.916;37.998;2022-12-18T05:41:04;9.35;;;2.58;;
62894;SDS011;49204;44.916;37.998;2022-12-18T05:43:34;7.92;;;2.90;;
62894;SDS011;49204;44.916;37.998;2022-12-18T05:46:05;8.75;;;2.50;;
62894;SDS011;49204;44.916;37.998;2022-12-18T05:48:36;5.97;;;2.65;;
62894;SDS011;49204;44.916;37.998;2022-12-18T05:51:08;6.00;;;2.77;;
62894;SDS011;49204;44.916;37.998;2022-12-18T05:53:39;4.30;;;2.05;;
62894;SDS011;49204;44.916;37.998;2022-12-18T05:56:10;5.20;;;2.30;;
62894;SDS011;49204;44.916;37.998;2022-12-18T05:58:43;5.55;;;2.00;;
62894;SDS011;49204;44.916;37.998;2022-12-18T06:01:14;9.15;;;2.50;;
62894;SDS011;49204;44.916;37.998;2022-12-18T06:03:45;8.55;;;3.62;;
62894;SDS011;49204;44.916;37.998;2022-12-18T06:06:17;8.38;;;2.92;;
62894;SDS011;49204;44.916;37.998;2022-12-18T06:08:53;3.83;;;2.00;;
62894;SDS011;49204;44.916;37.998;2022-12-18T06:11:24;2.98;;;1.37;;
62894;SDS011;49204;44.916;37.998;2022-12-18T06:13:54;2.62;;;1.27;;
62894;SDS011;49204;44.916;37.998;2022-12-18T06:16:24;2.05;;;1.05;;
62894;SDS011;49204;44.916;37.998;2022-12-18T06:18:55;2.40;;;1.22;;
62894;SDS011;49204;44.916;37.998;2022-12-18T06:21:24;2.52;;;1.20;;
62894;SDS011;49204;44.916;37.998;2022-12-18T06:23:53;3.50;;;1.35;;
62894;SDS011;49204;44.916;37.998;2022-12-18T06:26:22;7.62;;;1.10;;
62894;SDS011;49204;44.916;37.998;2022-12-18T06:28:51;2.35;;;1.20;;
62894;SDS011;49204;44.916;37.998;2022-12-18T06:31:20;3.92;;;1.30;;
62894;SDS011;49204;44.916;37.998;2022-12-18T06:33:49;3.55;;;1.50;;
62894;SDS011;49204;44.916;37.998;2022-12-18T06:36:18;3.83;;;1.60;;
62894;SDS011;49204;44.916;37.998;2022-12-18T06:38:48;3.00;;;1.30;;
62894;SDS011;49204;44.916;37.998;2022-12-18T06:41:18;3.62;;;1.52;;
62894;SDS011;49204;44.916;37.998;2022-12-18T06:43:48;6.83;;;2.90;;
62894;SDS011;49204;44.916;37.998;2022-12-18T06:46:17;6.45;;;3.12;;
62894;SDS011;49204;44.916;37.998;2022-12-18T06:48:47;6.83;;;3.83;;
62894;SDS011;49204;44.916;37.998;2022-12-18T06:51:20;6.70;;;3.15;;
62894;SDS011;49204;44.916;37.998;2022-12-18T06:53:50;3.40;;;1.95;;
62894;SDS011;49204;44.916;37.998;2022-12-18T06:56:18;2.58;;;1.27;;
62894;SDS011;49204;44.916;37.998;2022-12-18T06:58:47;2.45;;;1.67;;
62894;SDS011;49204;44.916;37.998;2022-12-18T07:01:16;4.30;;;1.70;;
62894;SDS011;49204;44.916;37.998;2022-12-18T07:03:45;5.28;;;2.08;;
62894;SDS011;49204;44.916;37.998;2022-12-18T07:06:16;6.67;;;2.20;;
62894;SDS011;49204;44.916;37.998;2022-12-18T07:08:46;4.83;;;1.75;;
62894;SDS011;49204;44.916;37.998;2022-12-18T07:11:15;2.00;;;1.27;;
62894;SDS011;49204;44.916;37.998;2022-12-18T07:13:45;2.50;;;1.45;;
62894;SDS011;49204;44.916;37.998;2022-12-18T07:16:15;3.67;;;1.47;;
62894;SDS011;49204;44.916;37.998;2022-12-18T07:18:45;3.95;;;1.72;;
62894;SDS011;49204;44.916;37.998;2022-12-18T07:21:17;4.30;;;1.65;;
62894;SDS011;49204;44.916;37.998;2022-12-18T07:23:46;5.87;;;2.10;;
62894;SDS011;49204;44.916;37.998;2022-12-18T07:26:16;3.22;;;1.37;;
62894;SDS011;49204;44.916;37.998;2022-12-18T07:28:46;3.37;;;1.82;;
62894;SDS011;49204;44.916;37.998;2022-12-18T07:31:19;4.90;;;1.87;;
62894;SDS011;49204;44.916;37.998;2022-12-18T07:33:49;3.70;;;1.80;;
62894;SDS011;49204;44.916;37.998;2022-12-18T07:36:19;4.35;;;2.37;;
62894;SDS011;49204;44.916;37.998;2022-12-18T07:38:51;2.90;;;1.67;;
62894;SDS011;49204;44.916;37.998;2022-12-18T07:41:20;3.42;;;1.70;;
62894;SDS011;49204;44.916;37.998;2022-12-18T07:43:50;3.75;;;1.90;;
62894;SDS011;49204;44.916;37.998;2022-12-18T07:46:19;6.90;;;2.17;;
62894;SDS011;49204;44.916;37.998;2022-12-18T07:48:48;4.22;;;2.08;;
62894;SDS011;49204;44.916;37.998;2022-12-18T07:51:17;4.97;;;2.05;;
62894;SDS011;49204;44.916;37.998;2022-12-18T07:53:46;6.75;;;2.00;;
62894;SDS011;49204;44.916;37.998;2022-12-18T07:56:15;5.65;;;2.10;;
62894;SDS011;49204;44.916;37.998;2022-12-18T07:58:47;3.15;;;1.92;;
62894;SDS011;49204;44.916;37.998;2022-12-18T08:01:16;3.87;;;1.90;;
62894;SDS011;49204;44.916;37.998;2022-12-18T08:03:44;2.60;;;1.52;;
62894;SDS011;49204;44.916;37.998;2022-12-18T08:06:14;3.75;;;1.80;;
62894;SDS011;49204;44.916;37.998;2022-12-18T08:08:44;3.87;;;1.80;;
62894;SDS011;49204;44.916;37.998;2022-12-18T08:11:12;4.42;;;1.90;;
62894;SDS011;49204;44.916;37.998;2022-12-18T08:13:41;4.28;;;2.20;;
62894;SDS011;49204;44.916;37.998;2022-12-18T08:16:10;5.08;;;2.37;;
62894;SDS011;49204;44.916;37.998;2022-12-18T08:18:40;6.40;;;2.10;;
62894;SDS011;49204;44.916;37.998;2022-12-18T08:21:14;4.83;;;2.33;;
62894;SDS011;49204;44.916;37.998;2022-12-18T08:23:49;3.87;;;2.10;;
62894;SDS011;49204;44.916;37.998;2022-12-18T08:26:19;5.55;;;2.10;;
62894;SDS011;49204;44.916;37.998;2022-12-18T08:28:48;4.78;;;2.37;;
62894;SDS011;49204;44.916;37.998;2022-12-18T08:31:18;8.38;;;2.87;;
62894;SDS011;49204;44.916;37.998;2022-12-18T08:33:49;6.83;;;2.70;;
62894;SDS011;49204;44.916;37.998;2022-12-18T08:36:19;5.55;;;3.22;;
62894;SDS011;49204;44.916;37.998;2022-12-18T08:38:48;6.47;;;2.83;;
62894;SDS011;49204;44.916;37.998;2022-12-18T08:41:17;9.85;;;3.08;;
62894;SDS011;49204;44.916;37.998;2022-12-18T08:43:47;6.53;;;2.65;;
62894;SDS011;49204;44.916;37.998;2022-12-18T08:46:37;5.25;;;2.87;;
62894;SDS011;49204;44.916;37.998;2022-12-18T08:49:11;4.12;;;2.42;;
62894;SDS011;49204;44.916;37.998;2022-12-18T08:51:40;6.87;;;2.75;;
62894;SDS011;49204;44.916;37.998;2022-12-18T08:54:10;6.92;;;2.62;;
62894;SDS011;49204;44.916;37.998;2022-12-18T08:56:40;8.68;;;3.90;;
62894;SDS011;49204;44.916;37.998;2022-12-18T08:59:09;7.33;;;2.70;;
62894;SDS011;49204;44.916;37.998;2022-12-18T09:01:38;7.37;;;3.05;;
62894;SDS011;49204;44.916;37.998;2022-12-18T09:04:07;6.90;;;2.85;;
62894;SDS011;49204;44.916;37.998;2022-12-18T09:06:37;6.17;;;3.15;;
62894;SDS011;49204;44.916;37.998;2022-12-18T09:09:06;9.80;;;3.35;;
62894;SDS011;49204;44.916;37.998;2022-12-18T09:11:34;7.08;;;3.83;;
62894;SDS011;49204;44.916;37.998;2022-12-18T09:14:03;6.67;;;3.33;;
62894;SDS011;49204;44.916;37.998;2022-12-18T09:16:32;10.90;;;3.37;;
62894;SDS011;49204;44.916;37.998;2022-12-18T09:19:02;7.25;;;3.27;;
62894;SDS011;49204;44.916;37.998;2022-12-18T09:21:33;7.75;;;3.98;;
62894;SDS011;49204;44.916;37.998;2022-12-18T09:24:08;7.22;;;2.50;;
62894;SDS011;49204;44.916;37.998;2022-12-18T09:26:39;5.47;;;2.70;;
62894;SDS011;49204;44.916;37.998;2022-12-18T09:29:07;4.83;;;2.58;;
62894;SDS011;49204;44.916;37.998;2022-12-18T09:31:36;5.78;;;2.47;;
62894;SDS011;49204;44.916;37.998;2022-12-18T09:34:06;5.80;;;2.80;;
62894;SDS011;49204;44.916;37.998;2022-12-18T09:36:35;6.50;;;3.55;;
62894;SDS011;49204;44.916;37.998;2022-12-18T09:39:05;9.58;;;4.80;;
62894;SDS011;49204;44.916;37.998;2022-12-18T09:44:16;5.67;;;3.15;;
62894;SDS011;49204;44.916;37.998;2022-12-18T09:47:03;8.65;;;3.55;;
62894;SDS011;49204;44.916;37.998;2022-12-18T09:49:33;8.65;;;3.72;;
62894;SDS011;49204;44.916;37.998;2022-12-18T09:57:34;6.62;;;3.00;;
62894;SDS011;49204;44.916;37.998;2022-12-18T10:00:08;5.85;;;2.90;;
62894;SDS011;49204;44.916;37.998;2022-12-18T10:02:40;8.28;;;3.62;;
62894;SDS011;49204;44.916;37.998;2022-12-18T10:05:13;7.15;;;3.10;;
62894;SDS011;49204;44.916;37.998;2022-12-18T10:10:46;7.97;;;3.80;;
62894;SDS011;49204;44.916;37.998;2022-12-18T10:13:21;6.03;;;2.72;;
62894;SDS011;49204;44.916;37.998;2022-12-18T10:21:21;7.35;;;2.90;;
62894;SDS011;49204;44.916;37.998;2022-12-18T10:23:55;9.53;;;3.60;;
62894;SDS011;49204;44.916;37.998;2022-12-18T10:26:27;5.12;;;2.90;;
62894;SDS011;49204;44.916;37.998;2022-12-18T10:28:58;6.28;;;3.12;;
62894;SDS011;49204;44.916;37.998;2022-12-18T10:31:27;6.70;;;2.60;;
62894;SDS011;49204;44.916;37.998;2022-12-18T10:33:56;5.72;;;2.90;;
62894;SDS011;49204;44.916;37.998;2022-12-18T10:36:25;7.47;;;3.05;;
62894;SDS011;49204;44.916;37.998;2022-12-18T10:38:54;7.75;;;3.35;;
62894;SDS011;49204;44.916;37.998;2022-12-18T10:41:28;10.82;;;3.72;;
62894;SDS011;49204;44.916;37.998;2022-12-18T10:44:42;10.23;;;3.62;;
62894;SDS011;49204;44.916;37.998;2022-12-18T10:47:01;11.38;;;4.20;;
62894;SDS011;49204;44.916;37.998;2022-12-18T10:49:27;11.18;;;3.75;;
62894;SDS011;49204;44.916;37.998;2022-12-18T10:52:14;9.60;;;4.20;;
62894;SDS011;49204;44.916;37.998;2022-12-18T10:54:49;9.90;;;4.17;;
62894;SDS011;49204;44.916;37.998;2022-12-18T11:00:21;11.93;;;4.85;;
62894;SDS011;49204;44.916;37.998;2022-12-18T11:02:55;12.00;;;6.10;;
62894;SDS011;49204;44.916;37.998;2022-12-18T11:05:33;17.45;;;7.62;;
62894;SDS011;49204;44.916;37.998;2022-12-18T11:07:59;18.42;;;7.55;;
62894;SDS011;49204;44.916;37.998;2022-12-18T11:10:32;19.32;;;7.95;;
62894;SDS011;49204;44.916;37.998;2022-12-18T11:13:15;19.25;;;8.75;;
62894;SDS011;49204;44.916;37.998;2022-12-18T11:15:47;18.60;;;8.40;;
62894;SDS011;49204;44.916;37.998;2022-12-18T11:18:16;19.17;;;7.70;;
62894;SDS011;49204;44.916;37.998;2022-12-18T11:21:00;16.77;;;8.25;;
62894;SDS011;49204;44.916;37.998;2022-12-18T11:23:32;17.25;;;8.35;;
62894;SDS011;49204;44.916;37.998;2022-12-18T11:26:03;18.67;;;8.40;;
62894;SDS011;49204;44.916;37.998;2022-12-18T11:28:43;21.37;;;7.92;;
62894;SDS011;49204;44.916;37.998;2022-12-18T11:31:23;17.55;;;7.90;;
62894;SDS011;49204;44.916;37.998;2022-12-18T11:34:00;19.87;;;8.58;;
62894;SDS011;49204;44.916;37.998;2022-12-18T11:36:45;18.70;;;7.37;;
62894;SDS011;49204;44.916;37.998;2022-12-18T11:42:05;16.00;;;7.87;;
62894;SDS011;49204;44.916;37.998;2022-12-18T11:44:51;17.92;;;6.25;;
62894;SDS011;49204;44.916;37.998;2022-12-18T11:50:13;16.73;;;6.87;;
62894;SDS011;49204;44.916;37.998;2022-12-18T11:52:46;15.98;;;7.50;;
62894;SDS011;49204;44.916;37.998;2022-12-18T11:56:24;15.43;;;6.25;;
62894;SDS011;49204;44.916;37.998;2022-12-18T11:58:13;13.18;;;5.95;;
62894;SDS011;49204;44.916;37.998;2022-12-18T12:12:27;21.52;;;7.37;;
62894;SDS011;49204;44.916;37.998;2022-12-18T12:15:05;16.20;;;6.45;;
62894;SDS011;49204;44.916;37.998;2022-12-18T12:23:26;21.57;;;6.92;;
62894;SDS011;49204;44.916;37.998;2022-12-18T12:26:29;20.48;;;7.12;;
62894;SDS011;49204;44.916;37.998;2022-12-18T12:39:49;31.30;;;8.95;;
62894;SDS011;49204;44.916;37.998;2022-12-18T12:42:41;29.32;;;9.75;;
62894;SDS011;49204;44.916;37.998;2022-12-18T12:45:36;28.42;;;11.15;;
62894;SDS011;49204;44.916;37.998;2022-12-18T12:48:07;30.65;;;9.25;;
62894;SDS011;49204;44.916;37.998;2022-12-18T12:50:38;19.02;;;7.03;;
62894;SDS011;49204;44.916;37.998;2022-12-18T12:53:08;27.62;;;9.20;;
62894;SDS011;49204;44.916;37.998;2022-12-18T12:55:39;26.20;;;9.10;;
62894;SDS011;49204;44.916;37.998;2022-12-18T12:58:25;23.30;;;8.55;;
62894;SDS011;49204;44.916;37.998;2022-12-18T13:01:10;24.05;;;7.72;;
62894;SDS011;49204;44.916;37.998;2022-12-18T13:04:12;29.67;;;9.05;;
62894;SDS011;49204;44.916;37.998;2022-12-18T13:07:16;28.90;;;8.80;;
62894;SDS011;49204;44.916;37.998;2022-12-18T13:09:34;33.38;;;9.50;;
62894;SDS011;49204;44.916;37.998;2022-12-18T13:12:04;26.25;;;9.35;;
62894;SDS011;49204;44.916;37.998;2022-12-18T13:15:11;27.82;;;8.95;;
62894;SDS011;49204;44.916;37.998;2022-12-18T13:17:43;29.82;;;9.43;;
62894;SDS011;49204;44.916;37.998;2022-12-18T13:20:12;30.25;;;8.60;;
62894;SDS011;49204;44.916;37.998;2022-12-18T13:22:44;26.97;;;8.70;;
62894;SDS011;49204;44.916;37.998;2022-12-18T13:25:27;34.27;;;9.50;;
62894;SDS011;49204;44.916;37.998;2022-12-18T13:30:45;21.62;;;7.30;;
62894;SDS011;49204;44.916;37.998;2022-12-18T13:38:45;27.25;;;7.97;;
62894;SDS011;49204;44.916;37.998;2022-12-18T13:43:55;24.50;;;8.23;;
62894;SDS011;49204;44.916;37.998;2022-12-18T13:46:42;26.15;;;10.53;;
62894;SDS011;49204;44.916;37.998;2022-12-18T13:51:50;22.02;;;8.23;;
62894;SDS011;49204;44.916;37.998;2022-12-18T13:54:33;25.82;;;8.70;;
62894;SDS011;49204;44.916;37.998;2022-12-18T13:57:04;21.40;;;6.97;;
62894;SDS011;49204;44.916;37.998;2022-12-18T13:59:35;18.67;;;7.72;;
62894;SDS011;49204;44.916;37.998;2022-12-18T14:02:20;19.12;;;7.22;;
62894;SDS011;49204;44.916;37.998;2022-12-18T14:04:51;21.85;;;8.18;;
62894;SDS011;49204;44.916;37.998;2022-12-18T14:07:28;24.87;;;8.03;;
62894;SDS011;49204;44.916;37.998;2022-12-18T14:09:58;23.07;;;8.65;;
62894;SDS011;49204;44.916;37.998;2022-12-18T14:12:31;18.35;;;6.78;;
62894;SDS011;49204;44.916;37.998;2022-12-18T14:20:56;17.02;;;7.80;;
62894;SDS011;49204;44.916;37.998;2022-12-18T14:26:21;18.40;;;7.37;;
62894;SDS011;49204;44.916;37.998;2022-12-18T14:28:52;14.93;;;6.65;;
62894;SDS011;49204;44.916;37.998;2022-12-18T14:31:28;20.65;;;8.10;;
62894;SDS011;49204;44.916;37.998;2022-12-18T14:33:54;18.77;;;7.53;;
62894;SDS011;49204;44.916;37.998;2022-12-18T14:36:24;17.23;;;6.80;;
62894;SDS011;49204;44.916;37.998;2022-12-18T14:39:01;21.60;;;7.53;;
62894;SDS011;49204;44.916;37.998;2022-12-18T14:41:26;15.65;;;6.70;;
62894;SDS011;49204;44.916;37.998;2022-12-18T14:43:56;17.12;;;6.70;;
62894;SDS011;49204;44.916;37.998;2022-12-18T14:49:02;18.70;;;5.78;;
62894;SDS011;49204;44.916;37.998;2022-12-18T14:51:52;11.12;;;5.75;;
62894;SDS011;49204;44.916;37.998;2022-12-18T14:54:22;16.17;;;6.22;;
62894;SDS011;49204;44.916;37.998;2022-12-18T14:56:58;14.80;;;6.45;;
62894;SDS011;49204;44.916;37.998;2022-12-18T14:59:29;14.13;;;6.72;;
62894;SDS011;49204;44.916;37.998;2022-12-18T15:04:48;16.00;;;6.80;;
62894;SDS011;49204;44.916;37.998;2022-12-18T15:07:33;14.63;;;6.28;;
62894;SDS011;49204;44.916;37.998;2022-12-18T15:12:47;13.85;;;7.00;;
62894;SDS011;49204;44.916;37.998;2022-12-18T15:20:50;18.27;;;6.90;;
62894;SDS011;49204;44.916;37.998;2022-12-18T15:23:25;16.10;;;6.55;;
62894;SDS011;49204;44.916;37.998;2022-12-18T15:25:58;11.95;;;6.25;;
62894;SDS011;49204;44.916;37.998;2022-12-18T15:33:34;11.88;;;6.05;;
62894;SDS011;49204;44.916;37.998;2022-12-18T15:36:15;11.18;;;6.58;;
62894;SDS011;49204;44.916;37.998;2022-12-18T15:38:38;12.30;;;5.90;;
62894;SDS011;49204;44.916;37.998;2022-12-18T15:41:14;16.32;;;7.35;;
62894;SDS011;49204;44.916;37.998;2022-12-18T15:43:44;28.65;;;6.47;;
62894;SDS011;49204;44.916;37.998;2022-12-18T15:46:21;11.80;;;6.17;;
62894;SDS011;49204;44.916;37.998;2022-12-18T15:48:52;11.35;;;6.42;;
62894;SDS011;49204;44.916;37.998;2022-12-18T15:51:56;11.70;;;5.12;;
62894;SDS011;49204;44.916;37.998;2022-12-18T15:54:03;8.33;;;4.92;;
62894;SDS011;49204;44.916;37.998;2022-12-18T15:56:36;10.80;;;6.15;;
62894;SDS011;49204;44.916;37.998;2022-12-18T15:59:23;10.72;;;4.85;;
62894;SDS011;49204;44.916;37.998;2022-12-18T16:01:53;9.85;;;4.72;;
62894;SDS011;49204;44.916;37.998;2022-12-18T16:04:22;9.18;;;5.25;;
62894;SDS011;49204;44.916;37.998;2022-12-18T16:06:52;14.55;;;4.78;;
62894;SDS011;49204;44.916;37.998;2022-12-18T16:09:20;7.72;;;5.00;;
62894;SDS011;49204;44.916;37.998;2022-12-18T16:11:49;9.60;;;4.40;;
62894;SDS011;49204;44.916;37.998;2022-12-18T16:14:25;9.08;;;5.12;;
62894;SDS011;49204;44.916;37.998;2022-12-18T16:16:56;8.68;;;5.03;;
62894;SDS011;49204;44.916;37.998;2022-12-18T16:19:30;9.95;;;5.42;;
62894;SDS011;49204;44.916;37.998;2022-12-18T16:21:58;10.50;;;5.12;;
62894;SDS011;49204;44.916;37.998;2022-12-18T16:24:34;10.80;;;4.67;;
62894;SDS011;49204;44.916;37.998;2022-12-18T16:27:03;8.38;;;4.03;;
62894;SDS011;49204;44.916;37.998;2022-12-18T16:29:32;7.87;;;4.97;;
62894;SDS011;49204;44.916;37.998;2022-12-18T16:32:01;7.47;;;4.17;;
62894;SDS011;49204;44.916;37.998;2022-12-18T16:34:30;7.12;;;4.25;;
62894;SDS011;49204;44.916;37.998;2022-12-18T16:37:06;6.05;;;4.10;;
62894;SDS011;49204;44.916;37.998;2022-12-18T16:44:45;7.60;;;3.60;;
62894;SDS011;49204;44.916;37.998;2022-12-18T16:47:15;5.37;;;3.30;;
62894;SDS011;49204;44.916;37.998;2022-12-18T16:49:44;6.37;;;3.60;;
62894;SDS011;49204;44.916;37.998;2022-12-18T16:52:12;5.90;;;3.80;;
62894;SDS011;49204;44.916;37.998;2022-12-18T16:54:41;5.17;;;3.30;;
62894;SDS011;49204;44.916;37.998;2022-12-18T16:57:16;5.33;;;3.58;;
62894;SDS011;49204;44.916;37.998;2022-12-18T16:59:41;6.40;;;3.72;;